WetterOnline ( https://www.wetteronline.de )

Wetter aktuell Bollewick

Aktuelles Wetter: Waren (71m)

6-stündlich | Neueste Meldungen
Ortszeit Temperatur Wetter
Di, 17.05. 14:00 19.0° C bewölkt
Di, 17.05. 8:00 13.3° C wolkig
Di, 17.05. 2:00 11.9° C wolkig
Mo, 16.05. 20:00 18.0° C bedeckt
Mo, 16.05. 14:00 21.4° C leicht bewölkt
Mo, 16.05. 8:00 13.0° C wolkenlos
Mo, 16.05. 2:00 9.2° C wolkenlos
So, 15.05. 20:00 17.0° C wolkenlos
Ortszeit Temperatur Wetter
Di, 17.05. 17:00 19.6° C wolkig
Di, 17.05. 16:40 19.5° C bewölkt
Di, 17.05. 16:30 18.6° C bewölkt
Di, 17.05. 16:20 18.6° C bewölkt
Di, 17.05. 16:10 18.8° C bewölkt
Di, 17.05. 16:00 18.8° C bewölkt
Di, 17.05. 15:50 18.8° C bewölkt
Di, 17.05. 15:30 19.2° C wolkig
Di, 17.05. 15:00 19.0° C wolkig
Di, 17.05. 14:30 19.4° C bewölkt
Di, 17.05. 14:00 19.0° C bewölkt
Ortszeit Relative Feuchte Sichtweite
Di, 17.05. 14:00 54% 50 km
Di, 17.05. 8:00 69% 50 km
Di, 17.05. 2:00 74% 50 km
Mo, 16.05. 20:00 56% 45 km
Mo, 16.05. 14:00 41% 55 km
Mo, 16.05. 8:00 67% 65 km
Mo, 16.05. 2:00 83% 50 km
So, 15.05. 20:00 46% >70 km
Ortszeit Relative Feuchte Sichtweite
Di, 17.05. 17:00 53% 40 km
Di, 17.05. 16:40 58% -
Di, 17.05. 16:30 61% 45 km
Di, 17.05. 16:20 61% -
Di, 17.05. 16:10 57% -
Di, 17.05. 16:00 59% 55 km
Di, 17.05. 15:50 59% -
Di, 17.05. 15:30 58% 40 km
Di, 17.05. 15:00 65% 35 km
Di, 17.05. 14:30 53% 40 km
Di, 17.05. 14:00 54% 50 km
Ortszeit Niederschlagsmenge Niederschlagsart
Di, 17.05. 14:00 0.0 l/m2 in 6 Std. -
Di, 17.05. 8:00 0.0 l/m2 in 12 Std. -
Di, 17.05. 2:00 0.0 l/m2 in 6 Std. -
Mo, 16.05. 20:00 0.0 l/m2 in 12 Std. -
Mo, 16.05. 14:00 0.0 l/m2 in 6 Std. -
Mo, 16.05. 8:00 0.0 l/m2 in 12 Std. -
Mo, 16.05. 2:00 0.0 l/m2 in 6 Std. -
So, 15.05. 20:00 0.0 l/m2 in 12 Std. -
Ortszeit Niederschlagsmenge Niederschlagsart
Di, 17.05. 17:00 0.0 l/m2 in 1 Std. -
Di, 17.05. 16:40 keine Meldung -
Di, 17.05. 16:30 0.0 l/m2 in 1 Std. -
Di, 17.05. 16:20 keine Meldung -
Di, 17.05. 16:10 keine Meldung -
Di, 17.05. 16:00 0.0 l/m2 in 1 Std. -
Di, 17.05. 15:50 keine Meldung -
Di, 17.05. 15:30 0.0 l/m2 in 1 Std. -
Di, 17.05. 15:00 0.0 l/m2 in 1 Std. -
Di, 17.05. 14:30 0.0 l/m2 in 1 Std. -
Di, 17.05. 14:00 0.0 l/m2 in 1 Std. -
Ortszeit Stärke Spitze Richtung
km/h Bft. km/h Grad Sektor
Di, 17.05. 14:00 4 1 14 140° SO
Di, 17.05. 8:00 9 2 22 60° NO
Di, 17.05. 2:00 6 1 33 60° NO
Mo, 16.05. 20:00 18 3 32 60° NO
Mo, 16.05. 14:00 11 2 29 60° NO
Mo, 16.05. 8:00 6 1 11 130° SO
Mo, 16.05. 2:00 4 1 18 60° NO
So, 15.05. 20:00 9 2 22 30° NO
Ortszeit Stärke Spitze Richtung
km/h Bft. km/h Grad Sektor
Di, 17.05. 17:00 6 1 17 200° S
Di, 17.05. 16:40 7 2 - 190° S
Di, 17.05. 16:30 7 2 18 200° S
Di, 17.05. 16:20 7 2 - 200° S
Di, 17.05. 16:10 9 2 - 200° S
Di, 17.05. 16:00 11 2 14 200° S
Di, 17.05. 15:50 11 2 - 200° S
Di, 17.05. 15:30 11 2 14 210° SW
Di, 17.05. 15:00 4 1 11 200° S
Di, 17.05. 14:30 7 2 11 200° S
Di, 17.05. 14:00 4 1 11 140° SO
Ortszeit Untergrenze Bedeckung Gattung
total tief tief mittel hoch
Di, 17.05. 14:00 2100 m 8/8 6/8 - - -
Di, 17.05. 8:00 2400 m 7/8 1/8 - - -
Di, 17.05. 2:00 2100 m 7/8 1/8 - - -
Mo, 16.05. 20:00 5100 m 8/8 8/8 - - -
Mo, 16.05. 14:00 6000 m 4/8 3/8 - - -
Mo, 16.05. 8:00 - 0/8 0/8 - - -
Mo, 16.05. 2:00 - 0/8 0/8 - - -
So, 15.05. 20:00 - 0/8 0/8 - - -
Ortszeit Bedeckungsgrad in Achtel und Wolkenuntergrenze
Di, 17.05. 17:00 2(2100m) 6(4500m) 7(5400m)
Di, 17.05. 16:40 7
Di, 17.05. 16:30 7(2100m) 7(5100m) 7(6900m)
Di, 17.05. 16:20 7(2100m) 7(5100m) 7(6900m)
Di, 17.05. 16:10 7
Di, 17.05. 16:00 7(2100m)
Di, 17.05. 15:50 7(2100m)
Di, 17.05. 15:30 3(2100m) 7(4800m) 8(6000m)
Di, 17.05. 15:00 6(3900m)
Di, 17.05. 14:30 5(2100m) 6(2400m) 8(3900m)
Di, 17.05. 14:00 6(2100m) 8(3600m)
Ortszeit Luftdruck NN (hPa) Tendenz (hPa in 3 Std.)
Di, 17.05. 14:00 1021 + 0,6
Di, 17.05. 8:00 1019 + 0,5
Di, 17.05. 2:00 1018 - 0,1
Mo, 16.05. 20:00 1018 - 0,1
Mo, 16.05. 14:00 1019 - 1,1
Mo, 16.05. 8:00 1021 - 0,3
Mo, 16.05. 2:00 1022 + 0,2
So, 15.05. 20:00 1021 - 0,5
Ortszeit Luftdruck NN (hPa) Tendenz (hPa in 3 Std.)
Di, 17.05. 17:00 1021 - 0,3
Di, 17.05. 16:40 1021 keine Meldung
Di, 17.05. 16:30 1021 - 0,2
Di, 17.05. 16:20 1021 keine Meldung
Di, 17.05. 16:10 1021 keine Meldung
Di, 17.05. 16:00 1021 0,0
Di, 17.05. 15:50 1021 keine Meldung
Di, 17.05. 15:30 1021 + 0,2
Di, 17.05. 15:00 1021 + 0,2
Di, 17.05. 14:30 1021 + 0,4
Di, 17.05. 14:00 1021 + 0,6
Ortszeit Schneehöhe (cm)
Di, 17.05. 14:00 0
Di, 17.05. 8:00 0
Di, 17.05. 2:00 0
Mo, 16.05. 20:00 0
Mo, 16.05. 14:00 0
Mo, 16.05. 8:00 0
Mo, 16.05. 2:00 0
So, 15.05. 20:00 0
Ortszeit Schneehöhe (cm)
Di, 17.05. 17:00 0
Di, 17.05. 16:40 0
Di, 17.05. 16:30 0
Di, 17.05. 16:20 0
Di, 17.05. 16:10 0
Di, 17.05. 16:00 0
Di, 17.05. 15:50 0
Di, 17.05. 15:30 0
Di, 17.05. 15:00 0
Di, 17.05. 14:30 0
Di, 17.05. 14:00 0
Link zu dieser Seite / Seite empfehlen

Das Wetter in ...